sensor_id;sensor_type;location;lat;lon;timestamp;pressure;altitude;pressure_sealevel;temperature;humidity
72285;BME280;60220;53.552;10.092;2022-10-22T00:01:50;100698.41;;;16.98;79.55
72285;BME280;60220;53.552;10.092;2022-10-22T00:04:16;100703.06;;;16.92;79.25
72285;BME280;60220;53.552;10.092;2022-10-22T00:06:46;100702.75;;;16.77;80.01
72285;BME280;60220;53.552;10.092;2022-10-22T00:09:14;100699.97;;;16.81;80.00
72285;BME280;60220;53.552;10.092;2022-10-22T00:11:43;100701.41;;;16.89;79.59
72285;BME280;60220;53.552;10.092;2022-10-22T00:14:10;100705.41;;;17.43;77.10
72285;BME280;60220;53.552;10.092;2022-10-22T00:16:39;100699.41;;;17.80;76.36
72285;BME280;60220;53.552;10.092;2022-10-22T00:19:06;100706.56;;;17.57;76.38
72285;BME280;60220;53.552;10.092;2022-10-22T00:21:35;100712.69;;;18.00;75.11
72285;BME280;60220;53.552;10.092;2022-10-22T00:24:03;100710.56;;;18.08;74.13
72285;BME280;60220;53.552;10.092;2022-10-22T00:26:30;100719.47;;;18.07;74.46
72285;BME280;60220;53.552;10.092;2022-10-22T00:28:56;100713.03;;;17.50;75.84
72285;BME280;60220;53.552;10.092;2022-10-22T00:31:23;100711.13;;;16.44;79.96
72285;BME280;60220;53.552;10.092;2022-10-22T00:33:52;100712.06;;;16.41;81.98
72285;BME280;60220;53.552;10.092;2022-10-22T00:36:18;100715.59;;;16.65;80.96
72285;BME280;60220;53.552;10.092;2022-10-22T00:38:45;100718.84;;;16.95;79.42
72285;BME280;60220;53.552;10.092;2022-10-22T00:41:15;100721.53;;;17.58;77.55
72285;BME280;60220;53.552;10.092;2022-10-22T00:43:55;100715.22;;;17.83;76.03
72285;BME280;60220;53.552;10.092;2022-10-22T00:46:22;100715.75;;;17.91;74.93
72285;BME280;60220;53.552;10.092;2022-10-22T00:48:50;100719.94;;;17.76;75.55
72285;BME280;60220;53.552;10.092;2022-10-22T00:51:19;100727.06;;;17.32;76.68
72285;BME280;60220;53.552;10.092;2022-10-22T00:53:52;100730.19;;;17.63;76.33
72285;BME280;60220;53.552;10.092;2022-10-22T00:56:22;100737.50;;;17.37;76.90
72285;BME280;60220;53.552;10.092;2022-10-22T00:58:52;100722.53;;;17.34;77.12
72285;BME280;60220;53.552;10.092;2022-10-22T01:01:22;100717.88;;;17.19;78.19
72285;BME280;60220;53.552;10.092;2022-10-22T01:03:49;100718.06;;;17.36;77.12
72285;BME280;60220;53.552;10.092;2022-10-22T01:06:23;100719.00;;;17.55;76.68
72285;BME280;60220;53.552;10.092;2022-10-22T01:08:56;100715.22;;;16.97;78.49
72285;BME280;60220;53.552;10.092;2022-10-22T01:11:39;100728.94;;;17.50;77.41
72285;BME280;60220;53.552;10.092;2022-10-22T01:14:14;100719.81;;;17.57;76.56
72285;BME280;60220;53.552;10.092;2022-10-22T01:16:48;100728.59;;;17.59;76.86
72285;BME280;60220;53.552;10.092;2022-10-22T01:19:40;100724.03;;;17.63;75.72
72285;BME280;60220;53.552;10.092;2022-10-22T01:22:19;100735.38;;;17.67;76.11
72285;BME280;60220;53.552;10.092;2022-10-22T01:24:57;100730.63;;;17.95;75.49
72285;BME280;60220;53.552;10.092;2022-10-22T01:27:49;100730.44;;;17.36;76.85
72285;BME280;60220;53.552;10.092;2022-10-22T01:30:19;100726.16;;;17.11;79.62
72285;BME280;60220;53.552;10.092;2022-10-22T01:32:50;100727.69;;;17.17;78.03
72285;BME280;60220;53.552;10.092;2022-10-22T01:35:21;100737.88;;;17.28;77.25
72285;BME280;60220;53.552;10.092;2022-10-22T01:37:53;100739.97;;;17.41;77.37
72285;BME280;60220;53.552;10.092;2022-10-22T01:40:20;100736.06;;;17.50;76.80
72285;BME280;60220;53.552;10.092;2022-10-22T01:42:56;100742.09;;;17.95;75.26
72285;BME280;60220;53.552;10.092;2022-10-22T01:45:32;100745.41;;;18.00;74.73
72285;BME280;60220;53.552;10.092;2022-10-22T01:48:07;100742.13;;;17.32;77.11
72285;BME280;60220;53.552;10.092;2022-10-22T01:51:00;100738.75;;;17.28;77.64
72285;BME280;60220;53.552;10.092;2022-10-22T01:53:39;100749.56;;;17.44;76.67
72285;BME280;60220;53.552;10.092;2022-10-22T01:56:20;100738.91;;;17.23;77.36
72285;BME280;60220;53.552;10.092;2022-10-22T01:58:55;100749.09;;;17.12;77.50
72285;BME280;60220;53.552;10.092;2022-10-22T02:04:10;100739.88;;;16.99;77.79
72285;BME280;60220;53.552;10.092;2022-10-22T02:06:42;100739.34;;;16.91;77.30
72285;BME280;60220;53.552;10.092;2022-10-22T02:09:12;100741.44;;;17.05;77.08
72285;BME280;60220;53.552;10.092;2022-10-22T02:11:43;100737.59;;;16.90;77.18
72285;BME280;60220;53.552;10.092;2022-10-22T02:14:14;100733.34;;;16.86;76.91
72285;BME280;60220;53.552;10.092;2022-10-22T02:16:45;100723.72;;;17.05;76.33
72285;BME280;60220;53.552;10.092;2022-10-22T02:19:18;100720.66;;;17.16;76.19
72285;BME280;60220;53.552;10.092;2022-10-22T02:21:48;100720.97;;;17.08;76.18
72285;BME280;60220;53.552;10.092;2022-10-22T02:24:15;100708.69;;;17.06;76.31
72285;BME280;60220;53.552;10.092;2022-10-22T02:26:46;100711.09;;;16.90;76.18
72285;BME280;60220;53.552;10.092;2022-10-22T02:29:25;100711.56;;;17.00;76.22
72285;BME280;60220;53.552;10.092;2022-10-22T02:31:54;100707.88;;;17.04;76.10
72285;BME280;60220;53.552;10.092;2022-10-22T02:34:32;100714.44;;;16.49;77.86
72285;BME280;60220;53.552;10.092;2022-10-22T02:37:00;100717.81;;;16.29;78.19
72285;BME280;60220;53.552;10.092;2022-10-22T02:39:28;100725.72;;;15.56;81.08
72285;BME280;60220;53.552;10.092;2022-10-22T02:41:56;100725.50;;;15.62;81.41
72285;BME280;60220;53.552;10.092;2022-10-22T02:44:24;100732.44;;;15.66;80.75
72285;BME280;60220;53.552;10.092;2022-10-22T02:46:53;100718.25;;;15.93;80.49
72285;BME280;60220;53.552;10.092;2022-10-22T02:49:20;100709.91;;;16.52;77.65
72285;BME280;60220;53.552;10.092;2022-10-22T02:51:47;100714.94;;;16.12;78.77
72285;BME280;60220;53.552;10.092;2022-10-22T02:54:19;100718.38;;;15.64;80.50
72285;BME280;60220;53.552;10.092;2022-10-22T02:56:45;100721.78;;;15.41;81.66
72285;BME280;60220;53.552;10.092;2022-10-22T02:59:12;100720.91;;;15.41;81.57
72285;BME280;60220;53.552;10.092;2022-10-22T03:01:38;100719.16;;;15.68;80.98
72285;BME280;60220;53.552;10.092;2022-10-22T03:04:08;100718.13;;;15.19;82.32
72285;BME280;60220;53.552;10.092;2022-10-22T03:06:38;100722.53;;;15.19;82.26
72285;BME280;60220;53.552;10.092;2022-10-22T03:09:09;100723.63;;;15.12;82.58
72285;BME280;60220;53.552;10.092;2022-10-22T03:11:38;100721.31;;;15.29;81.93
72285;BME280;60220;53.552;10.092;2022-10-22T03:14:05;100715.16;;;16.06;78.63
72285;BME280;60220;53.552;10.092;2022-10-22T03:16:34;100723.22;;;15.52;80.39
72285;BME280;60220;53.552;10.092;2022-10-22T03:19:00;100722.75;;;15.39;80.80
72285;BME280;60220;53.552;10.092;2022-10-22T03:21:31;100732.47;;;15.89;78.43
72285;BME280;60220;53.552;10.092;2022-10-22T03:24:10;100723.38;;;16.23;76.97
72285;BME280;60220;53.552;10.092;2022-10-22T03:26:44;100733.53;;;15.59;78.67
72285;BME280;60220;53.552;10.092;2022-10-22T03:29:13;100736.16;;;15.33;79.95
72285;BME280;60220;53.552;10.092;2022-10-22T03:31:41;100741.56;;;15.02;81.68
72285;BME280;60220;53.552;10.092;2022-10-22T03:34:08;100741.50;;;14.76;83.34
72285;BME280;60220;53.552;10.092;2022-10-22T03:36:39;100744.00;;;14.80;84.30
72285;BME280;60220;53.552;10.092;2022-10-22T03:39:11;100748.41;;;14.80;84.43
72285;BME280;60220;53.552;10.092;2022-10-22T03:41:43;100754.56;;;14.51;86.10
72285;BME280;60220;53.552;10.092;2022-10-22T03:44:16;100758.91;;;15.11;84.99
72285;BME280;60220;53.552;10.092;2022-10-22T03:46:43;100767.31;;;14.66;85.08
72285;BME280;60220;53.552;10.092;2022-10-22T03:49:12;100757.19;;;14.51;86.71
72285;BME280;60220;53.552;10.092;2022-10-22T03:51:41;100761.41;;;14.26;87.88
72285;BME280;60220;53.552;10.092;2022-10-22T03:54:12;100765.44;;;14.40;88.38
72285;BME280;60220;53.552;10.092;2022-10-22T03:56:38;100763.50;;;14.76;86.52
72285;BME280;60220;53.552;10.092;2022-10-22T03:59:06;100774.16;;;14.73;85.85
72285;BME280;60220;53.552;10.092;2022-10-22T04:01:33;100772.00;;;14.56;86.56
72285;BME280;60220;53.552;10.092;2022-10-22T04:04:01;100768.78;;;14.76;85.78
72285;BME280;60220;53.552;10.092;2022-10-22T04:06:33;100778.91;;;15.47;82.74
72285;BME280;60220;53.552;10.092;2022-10-22T04:08:59;100774.47;;;14.92;84.25
72285;BME280;60220;53.552;10.092;2022-10-22T04:11:28;100777.41;;;14.83;84.77
72285;BME280;60220;53.552;10.092;2022-10-22T04:13:56;100784.28;;;14.59;85.84
72285;BME280;60220;53.552;10.092;2022-10-22T04:16:27;100789.28;;;14.36;86.53
72285;BME280;60220;53.552;10.092;2022-10-22T04:18:58;100794.19;;;14.51;86.31
72285;BME280;60220;53.552;10.092;2022-10-22T04:21:27;100795.91;;;14.83;84.89
72285;BME280;60220;53.552;10.092;2022-10-22T04:23:54;100783.00;;;15.01;83.32
72285;BME280;60220;53.552;10.092;2022-10-22T04:26:23;100785.34;;;15.11;83.28
72285;BME280;60220;53.552;10.092;2022-10-22T04:28:50;100777.19;;;15.18;82.52
72285;BME280;60220;53.552;10.092;2022-10-22T04:31:26;100773.44;;;14.97;82.53
72285;BME280;60220;53.552;10.092;2022-10-22T04:33:54;100783.72;;;15.06;82.14
72285;BME280;60220;53.552;10.092;2022-10-22T04:36:21;100783.94;;;15.28;81.29
72285;BME280;60220;53.552;10.092;2022-10-22T04:38:53;100784.06;;;14.94;82.03
72285;BME280;60220;53.552;10.092;2022-10-22T04:41:22;100782.66;;;15.12;81.70
72285;BME280;60220;53.552;10.092;2022-10-22T04:43:52;100792.34;;;14.84;82.45
72285;BME280;60220;53.552;10.092;2022-10-22T04:46:19;100788.88;;;14.82;82.38
72285;BME280;60220;53.552;10.092;2022-10-22T04:48:52;100793.41;;;14.78;82.07
72285;BME280;60220;53.552;10.092;2022-10-22T04:51:20;100783.38;;;14.89;82.72
72285;BME280;60220;53.552;10.092;2022-10-22T04:53:47;100771.97;;;15.15;80.96
72285;BME280;60220;53.552;10.092;2022-10-22T04:56:23;100779.75;;;14.92;81.74
72285;BME280;60220;53.552;10.092;2022-10-22T04:58:52;100777.16;;;14.90;81.84
72285;BME280;60220;53.552;10.092;2022-10-22T05:01:22;100777.81;;;14.98;81.72
72285;BME280;60220;53.552;10.092;2022-10-22T05:03:54;100788.88;;;14.82;82.27
72285;BME280;60220;53.552;10.092;2022-10-22T05:06:21;100781.25;;;14.71;82.90
72285;BME280;60220;53.552;10.092;2022-10-22T05:08:52;100784.75;;;15.01;81.12
72285;BME280;60220;53.552;10.092;2022-10-22T05:11:20;100788.56;;;14.63;82.78
72285;BME280;60220;53.552;10.092;2022-10-22T05:13:50;100790.19;;;14.35;84.76
72285;BME280;60220;53.552;10.092;2022-10-22T05:16:17;100798.78;;;14.10;85.87
72285;BME280;60220;53.552;10.092;2022-10-22T05:18:44;100797.88;;;13.79;87.29
72285;BME280;60220;53.552;10.092;2022-10-22T05:21:16;100801.13;;;13.89;87.50
72285;BME280;60220;53.552;10.092;2022-10-22T05:23:44;100798.38;;;13.93;86.90
72285;BME280;60220;53.552;10.092;2022-10-22T05:26:13;100798.72;;;14.13;86.25
72285;BME280;60220;53.552;10.092;2022-10-22T05:28:40;100801.75;;;14.31;86.20
72285;BME280;60220;53.552;10.092;2022-10-22T05:31:08;100798.13;;;14.35;85.60
72285;BME280;60220;53.552;10.092;2022-10-22T05:33:35;100800.38;;;14.50;84.79
72285;BME280;60220;53.552;10.092;2022-10-22T05:36:04;100804.03;;;14.75;84.66
72285;BME280;60220;53.552;10.092;2022-10-22T05:38:32;100801.44;;;14.44;83.87
72285;BME280;60220;53.552;10.092;2022-10-22T05:41:00;100806.59;;;13.81;86.77
72285;BME280;60220;53.552;10.092;2022-10-22T05:43:27;100803.78;;;13.89;86.98
72285;BME280;60220;53.552;10.092;2022-10-22T05:45:54;100804.66;;;13.54;88.32
72285;BME280;60220;53.552;10.092;2022-10-22T05:48:20;100806.00;;;13.34;89.02
72285;BME280;60220;53.552;10.092;2022-10-22T05:50:47;100802.91;;;13.88;87.31
72285;BME280;60220;53.552;10.092;2022-10-22T05:53:15;100808.31;;;13.84;86.19
72285;BME280;60220;53.552;10.092;2022-10-22T05:55:43;100803.56;;;13.61;87.35
72285;BME280;60220;53.552;10.092;2022-10-22T05:58:11;100808.19;;;13.88;86.56
72285;BME280;60220;53.552;10.092;2022-10-22T06:00:37;100813.91;;;13.70;87.17
72285;BME280;60220;53.552;10.092;2022-10-22T06:03:04;100811.69;;;13.53;87.97
72285;BME280;60220;53.552;10.092;2022-10-22T06:05:33;100825.13;;;13.43;88.63
72285;BME280;60220;53.552;10.092;2022-10-22T06:08:01;100824.75;;;13.59;88.44
72285;BME280;60220;53.552;10.092;2022-10-22T06:10:27;100826.28;;;13.68;87.76
72285;BME280;60220;53.552;10.092;2022-10-22T06:12:58;100830.69;;;14.03;86.28
72285;BME280;60220;53.552;10.092;2022-10-22T06:15:25;100834.31;;;13.99;85.74
72285;BME280;60220;53.552;10.092;2022-10-22T06:17:52;100832.03;;;14.17;84.74
72285;BME280;60220;53.552;10.092;2022-10-22T06:20:18;100835.84;;;14.07;84.80
72285;BME280;60220;53.552;10.092;2022-10-22T06:22:45;100829.25;;;14.23;84.45
72285;BME280;60220;53.552;10.092;2022-10-22T06:25:12;100838.78;;;14.29;84.62
72285;BME280;60220;53.552;10.092;2022-10-22T06:27:39;100837.81;;;14.32;83.83
72285;BME280;60220;53.552;10.092;2022-10-22T06:30:08;100837.56;;;14.08;84.52
72285;BME280;60220;53.552;10.092;2022-10-22T06:32:35;100838.03;;;13.90;85.33
72285;BME280;60220;53.552;10.092;2022-10-22T06:35:02;100847.28;;;13.71;87.80
72285;BME280;60220;53.552;10.092;2022-10-22T06:37:28;100841.75;;;13.82;86.68
72285;BME280;60220;53.552;10.092;2022-10-22T06:39:55;100849.25;;;13.63;86.83
72285;BME280;60220;53.552;10.092;2022-10-22T06:42:21;100845.28;;;13.82;87.25
72285;BME280;60220;53.552;10.092;2022-10-22T06:44:48;100841.50;;;13.92;86.09
72285;BME280;60220;53.552;10.092;2022-10-22T06:47:15;100841.13;;;14.07;85.72
72285;BME280;60220;53.552;10.092;2022-10-22T06:49:44;100840.13;;;13.76;86.32
72285;BME280;60220;53.552;10.092;2022-10-22T06:52:13;100848.03;;;13.77;86.67
72285;BME280;60220;53.552;10.092;2022-10-22T06:54:40;100851.91;;;13.98;85.92
72285;BME280;60220;53.552;10.092;2022-10-22T06:57:06;100852.56;;;14.06;85.80
72285;BME280;60220;53.552;10.092;2022-10-22T06:59:33;100855.91;;;14.14;84.82
72285;BME280;60220;53.552;10.092;2022-10-22T07:01:59;100866.34;;;14.19;85.01
72285;BME280;60220;53.552;10.092;2022-10-22T07:04:30;100874.13;;;14.23;84.60
72285;BME280;60220;53.552;10.092;2022-10-22T07:06:56;100879.31;;;13.93;85.91
72285;BME280;60220;53.552;10.092;2022-10-22T07:09:25;100880.03;;;13.99;86.07
72285;BME280;60220;53.552;10.092;2022-10-22T07:11:52;100881.78;;;13.63;86.68
72285;BME280;60220;53.552;10.092;2022-10-22T07:14:19;100880.84;;;13.66;87.25
72285;BME280;60220;53.552;10.092;2022-10-22T07:16:45;100882.66;;;13.64;87.33
72285;BME280;60220;53.552;10.092;2022-10-22T07:19:12;100885.22;;;14.02;86.06
72285;BME280;60220;53.552;10.092;2022-10-22T07:21:40;100899.34;;;14.00;85.31
72285;BME280;60220;53.552;10.092;2022-10-22T07:24:07;100897.13;;;13.85;85.85
72285;BME280;60220;53.552;10.092;2022-10-22T07:26:34;100891.03;;;14.16;84.91
72285;BME280;60220;53.552;10.092;2022-10-22T07:29:01;100903.75;;;14.35;84.61
72285;BME280;60220;53.552;10.092;2022-10-22T07:31:28;100897.38;;;14.09;84.87
72285;BME280;60220;53.552;10.092;2022-10-22T07:33:55;100900.34;;;14.30;84.66
72285;BME280;60220;53.552;10.092;2022-10-22T07:36:21;100893.66;;;14.16;85.11
72285;BME280;60220;53.552;10.092;2022-10-22T07:38:54;100909.53;;;14.15;85.18
72285;BME280;60220;53.552;10.092;2022-10-22T07:41:21;100910.09;;;13.92;85.47
72285;BME280;60220;53.552;10.092;2022-10-22T07:43:49;100907.94;;;14.09;85.85
72285;BME280;60220;53.552;10.092;2022-10-22T07:46:15;100909.00;;;14.01;86.73
72285;BME280;60220;53.552;10.092;2022-10-22T07:48:42;100914.28;;;14.38;85.30
72285;BME280;60220;53.552;10.092;2022-10-22T07:51:08;100913.31;;;14.40;85.10
72285;BME280;60220;53.552;10.092;2022-10-22T07:53:35;100923.53;;;14.86;83.68
72285;BME280;60220;53.552;10.092;2022-10-22T07:56:04;100929.53;;;14.93;83.29
72285;BME280;60220;53.552;10.092;2022-10-22T07:58:30;100920.84;;;15.48;81.45
72285;BME280;60220;53.552;10.092;2022-10-22T08:01:00;100929.69;;;15.47;80.28
72285;BME280;60220;53.552;10.092;2022-10-22T08:03:27;100936.97;;;15.09;82.42
72285;BME280;60220;53.552;10.092;2022-10-22T08:05:57;100931.84;;;14.73;84.53
72285;BME280;60220;53.552;10.092;2022-10-22T08:08:23;100929.31;;;14.68;84.57
72285;BME280;60220;53.552;10.092;2022-10-22T08:10:51;100932.16;;;14.60;85.37
72285;BME280;60220;53.552;10.092;2022-10-22T08:13:21;100938.31;;;14.93;84.80
72285;BME280;60220;53.552;10.092;2022-10-22T08:15:48;100931.88;;;15.03;83.92
72285;BME280;60220;53.552;10.092;2022-10-22T08:18:17;100943.13;;;14.79;85.58
72285;BME280;60220;53.552;10.092;2022-10-22T08:20:44;100940.28;;;15.18;84.51
72285;BME280;60220;53.552;10.092;2022-10-22T08:23:10;100938.97;;;15.01;85.79
72285;BME280;60220;53.552;10.092;2022-10-22T08:25:37;100948.56;;;14.73;86.81
72285;BME280;60220;53.552;10.092;2022-10-22T08:28:04;100950.72;;;14.90;85.41
72285;BME280;60220;53.552;10.092;2022-10-22T08:30:35;100949.81;;;14.92;85.22
72285;BME280;60220;53.552;10.092;2022-10-22T08:33:03;100943.47;;;15.87;82.65
72285;BME280;60220;53.552;10.092;2022-10-22T08:35:30;100943.03;;;15.73;82.06
72285;BME280;60220;53.552;10.092;2022-10-22T08:37:59;100951.91;;;16.26;81.36
72285;BME280;60220;53.552;10.092;2022-10-22T08:40:29;100958.75;;;16.33;79.71
72285;BME280;60220;53.552;10.092;2022-10-22T08:43:27;100962.94;;;16.92;78.00
72285;BME280;60220;53.552;10.092;2022-10-22T08:46:10;100967.00;;;17.25;76.71
72285;BME280;60220;53.552;10.092;2022-10-22T08:48:44;100969.03;;;15.88;81.84
72285;BME280;60220;53.552;10.092;2022-10-22T08:51:16;100968.47;;;16.33;79.33
72285;BME280;60220;53.552;10.092;2022-10-22T08:53:57;100976.44;;;17.09;77.79
72285;BME280;60220;53.552;10.092;2022-10-22T08:56:29;100971.06;;;16.87;77.68
72285;BME280;60220;53.552;10.092;2022-10-22T08:58:59;100968.03;;;16.45;79.33
72285;BME280;60220;53.552;10.092;2022-10-22T09:01:33;100973.69;;;15.80;81.86
72285;BME280;60220;53.552;10.092;2022-10-22T09:04:06;100984.09;;;15.86;82.59
72285;BME280;60220;53.552;10.092;2022-10-22T09:06:39;100979.78;;;17.14;78.11
72285;BME280;60220;53.552;10.092;2022-10-22T09:09:10;100981.31;;;16.71;79.59
72285;BME280;60220;53.552;10.092;2022-10-22T09:11:39;100978.50;;;16.50;80.19
72285;BME280;60220;53.552;10.092;2022-10-22T09:14:13;100983.84;;;17.24;76.95
72285;BME280;60220;53.552;10.092;2022-10-22T09:19:36;100968.28;;;18.28;73.18
72285;BME280;60220;53.552;10.092;2022-10-22T09:22:17;100976.91;;;18.77;72.16
72285;BME280;60220;53.552;10.092;2022-10-22T09:24:52;100977.63;;;17.25;75.31
72285;BME280;60220;53.552;10.092;2022-10-22T09:27:26;100974.88;;;17.51;74.72
72285;BME280;60220;53.552;10.092;2022-10-22T09:29:53;100962.13;;;18.48;72.31
72285;BME280;60220;53.552;10.092;2022-10-22T09:32:21;100969.41;;;18.01;73.55
72285;BME280;60220;53.552;10.092;2022-10-22T09:34:49;100963.91;;;18.27;71.98
72285;BME280;60220;53.552;10.092;2022-10-22T09:37:17;100965.31;;;18.98;69.91
72285;BME280;60220;53.552;10.092;2022-10-22T09:39:46;100974.44;;;18.72;70.62
72285;BME280;60220;53.552;10.092;2022-10-22T09:42:15;100972.72;;;17.62;73.77
72285;BME280;60220;53.552;10.092;2022-10-22T09:44:42;100974.44;;;18.50;72.80
72285;BME280;60220;53.552;10.092;2022-10-22T09:47:31;100973.72;;;18.25;72.44
72285;BME280;60220;53.552;10.092;2022-10-22T09:50:16;100972.31;;;18.17;71.99
72285;BME280;60220;53.552;10.092;2022-10-22T09:52:45;100983.38;;;18.28;72.00
72285;BME280;60220;53.552;10.092;2022-10-22T09:55:16;100983.59;;;18.43;72.25
72285;BME280;60220;53.552;10.092;2022-10-22T09:57:43;100982.75;;;18.85;70.76
72285;BME280;60220;53.552;10.092;2022-10-22T10:00:18;100983.91;;;19.18;68.92
72285;BME280;60220;53.552;10.092;2022-10-22T10:02:46;100985.22;;;18.47;71.80
72285;BME280;60220;53.552;10.092;2022-10-22T10:05:19;100988.44;;;18.56;72.66
72285;BME280;60220;53.552;10.092;2022-10-22T10:07:46;100985.59;;;18.60;71.88
72285;BME280;60220;53.552;10.092;2022-10-22T10:10:18;100988.72;;;18.90;70.66
72285;BME280;60220;53.552;10.092;2022-10-22T10:12:55;100987.47;;;18.99;70.28
72285;BME280;60220;53.552;10.092;2022-10-22T10:15:27;100984.31;;;18.69;71.58
72285;BME280;60220;53.552;10.092;2022-10-22T10:18:04;100983.44;;;19.49;68.51
72285;BME280;60220;53.552;10.092;2022-10-22T10:20:38;100990.47;;;18.91;69.67
72285;BME280;60220;53.552;10.092;2022-10-22T10:23:14;100989.25;;;19.18;70.67
72285;BME280;60220;53.552;10.092;2022-10-22T10:25:48;100986.94;;;18.90;69.35
72285;BME280;60220;53.552;10.092;2022-10-22T10:28:24;100980.78;;;19.68;67.32
72285;BME280;60220;53.552;10.092;2022-10-22T10:30:56;100979.28;;;18.83;69.05
72285;BME280;60220;53.552;10.092;2022-10-22T10:33:32;100976.47;;;19.47;67.63
72285;BME280;60220;53.552;10.092;2022-10-22T10:36:11;100983.16;;;18.96;69.21
72285;BME280;60220;53.552;10.092;2022-10-22T10:38:48;100983.28;;;18.73;70.19
72285;BME280;60220;53.552;10.092;2022-10-22T10:41:27;100982.47;;;18.71;70.74
72285;BME280;60220;53.552;10.092;2022-10-22T10:44:21;100980.13;;;19.04;69.39
72285;BME280;60220;53.552;10.092;2022-10-22T10:46:58;100972.34;;;19.58;67.47
72285;BME280;60220;53.552;10.092;2022-10-22T10:49:30;100968.56;;;20.18;64.23
72285;BME280;60220;53.552;10.092;2022-10-22T10:52:05;100978.91;;;19.51;67.04
72285;BME280;60220;53.552;10.092;2022-10-22T10:54:45;100976.25;;;18.92;69.62
72285;BME280;60220;53.552;10.092;2022-10-22T10:57:23;100980.31;;;19.19;67.61
72285;BME280;60220;53.552;10.092;2022-10-22T11:00:03;100977.47;;;20.17;64.76
72285;BME280;60220;53.552;10.092;2022-10-22T11:02:48;100986.38;;;20.54;64.19
72285;BME280;60220;53.552;10.092;2022-10-22T11:05:38;100980.84;;;19.85;65.64
72285;BME280;60220;53.552;10.092;2022-10-22T11:08:10;100980.13;;;20.00;66.46
72285;BME280;60220;53.552;10.092;2022-10-22T11:10:43;100980.22;;;19.61;66.96
72285;BME280;60220;53.552;10.092;2022-10-22T11:13:19;100980.13;;;19.44;66.17
72285;BME280;60220;53.552;10.092;2022-10-22T11:15:51;100973.16;;;19.01;68.00
72285;BME280;60220;53.552;10.092;2022-10-22T11:18:26;100975.56;;;18.87;67.14
72285;BME280;60220;53.552;10.092;2022-10-22T11:21:06;100973.91;;;19.05;66.65
72285;BME280;60220;53.552;10.092;2022-10-22T11:23:37;100987.81;;;19.11;66.79
72285;BME280;60220;53.552;10.092;2022-10-22T11:26:06;100985.06;;;19.13;67.46
72285;BME280;60220;53.552;10.092;2022-10-22T11:28:43;100980.72;;;19.51;64.64
72285;BME280;60220;53.552;10.092;2022-10-22T11:31:15;100988.13;;;19.04;66.69
72285;BME280;60220;53.552;10.092;2022-10-22T11:33:47;100978.97;;;19.50;64.72
72285;BME280;60220;53.552;10.092;2022-10-22T11:36:17;100981.78;;;19.26;65.42
72285;BME280;60220;53.552;10.092;2022-10-22T11:38:46;100974.69;;;19.07;67.29
72285;BME280;60220;53.552;10.092;2022-10-22T11:41:17;100968.72;;;19.41;68.02
72285;BME280;60220;53.552;10.092;2022-10-22T11:44:04;100966.97;;;19.60;65.99
72285;BME280;60220;53.552;10.092;2022-10-22T11:46:38;100979.03;;;18.89;68.35
72285;BME280;60220;53.552;10.092;2022-10-22T11:49:18;100983.09;;;19.37;65.75
72285;BME280;60220;53.552;10.092;2022-10-22T11:51:49;100978.13;;;19.09;67.48
72285;BME280;60220;53.552;10.092;2022-10-22T11:54:37;100980.59;;;19.13;67.99
72285;BME280;60220;53.552;10.092;2022-10-22T11:57:21;100976.09;;;19.54;67.05
72285;BME280;60220;53.552;10.092;2022-10-22T11:59:51;100977.56;;;19.61;65.96
72285;BME280;60220;53.552;10.092;2022-10-22T12:02:30;100980.66;;;19.71;65.53
72285;BME280;60220;53.552;10.092;2022-10-22T12:05:18;100980.31;;;19.19;66.67
72285;BME280;60220;53.552;10.092;2022-10-22T12:11:05;100981.78;;;19.26;65.97
72285;BME280;60220;53.552;10.092;2022-10-22T12:14:02;100978.75;;;18.53;67.01
72285;BME280;60220;53.552;10.092;2022-10-22T12:16:36;100976.44;;;18.67;67.03
72285;BME280;60220;53.552;10.092;2022-10-22T12:19:05;100979.97;;;18.68;65.23
72285;BME280;60220;53.552;10.092;2022-10-22T12:21:39;100979.22;;;18.84;65.09
72285;BME280;60220;53.552;10.092;2022-10-22T12:24:12;100979.56;;;19.17;64.97
72285;BME280;60220;53.552;10.092;2022-10-22T12:26:39;100979.13;;;19.26;64.78
72285;BME280;60220;53.552;10.092;2022-10-22T12:29:10;100982.63;;;18.68;66.93
72285;BME280;60220;53.552;10.092;2022-10-22T12:31:38;100982.06;;;19.59;64.31
72285;BME280;60220;53.552;10.092;2022-10-22T12:34:05;100990.38;;;20.27;62.64
72285;BME280;60220;53.552;10.092;2022-10-22T12:36:34;100988.78;;;18.68;66.48
72285;BME280;60220;53.552;10.092;2022-10-22T12:39:12;100992.44;;;18.66;67.64
72285;BME280;60220;53.552;10.092;2022-10-22T12:41:42;100994.91;;;18.90;67.49
72285;BME280;60220;53.552;10.092;2022-10-22T12:44:14;100994.28;;;19.24;66.86
72285;BME280;60220;53.552;10.092;2022-10-22T12:46:42;100996.84;;;19.07;66.90
72285;BME280;60220;53.552;10.092;2022-10-22T12:49:14;100997.53;;;19.12;66.70
72285;BME280;60220;53.552;10.092;2022-10-22T12:51:43;100999.19;;;19.33;66.32
72285;BME280;60220;53.552;10.092;2022-10-22T12:54:21;101006.59;;;18.44;69.25
72285;BME280;60220;53.552;10.092;2022-10-22T12:56:49;100999.28;;;19.52;66.58
72285;BME280;60220;53.552;10.092;2022-10-22T12:59:19;101004.84;;;18.87;67.66
72285;BME280;60220;53.552;10.092;2022-10-22T13:01:47;100997.63;;;18.89;67.25
72285;BME280;60220;53.552;10.092;2022-10-22T13:04:20;100994.19;;;18.87;68.01
72285;BME280;60220;53.552;10.092;2022-10-22T13:06:50;101003.22;;;19.03;66.14
72285;BME280;60220;53.552;10.092;2022-10-22T13:09:21;101003.81;;;18.69;67.07